createdAt,value
2022-10-15T00:00:08.564Z,100319.69
2022-10-15T00:02:35.100Z,100309.31
2022-10-15T00:05:01.693Z,100320.66
2022-10-15T00:07:29.173Z,100312.78
2022-10-15T00:09:55.715Z,100310.69
2022-10-15T00:12:22.165Z,100302.81
2022-10-15T00:14:48.624Z,100299.88
2022-10-15T00:17:15.116Z,100298.91
2022-10-15T00:19:41.538Z,100292.66
2022-10-15T00:22:07.969Z,100301.38
2022-10-15T00:24:34.434Z,100300.84
2022-10-15T00:27:00.911Z,100271.53
2022-10-15T00:29:27.379Z,100285.41
2022-10-15T00:31:54.659Z,100290.66
2022-10-15T00:34:21.098Z,100295.38
2022-10-15T00:36:50.528Z,100283.13
2022-10-15T00:39:17.565Z,100262.88
2022-10-15T00:41:44.407Z,100281.72
2022-10-15T00:44:25.890Z,100278.94
2022-10-15T00:47:01.749Z,100252.69
2022-10-15T00:49:35.801Z,100277.28
2022-10-15T00:52:03.659Z,100274.66
2022-10-15T00:54:34.275Z,100281.72
2022-10-15T00:57:01.295Z,100292.50
2022-10-15T00:59:29.692Z,100285.38
2022-10-15T01:01:56.169Z,100298.09
2022-10-15T01:04:23.623Z,100300.06
2022-10-15T01:06:50.077Z,100304.09
2022-10-15T01:09:16.634Z,100304.41
2022-10-15T01:11:47.395Z,100301.25
2022-10-15T01:14:19.847Z,100299.63
2022-10-15T01:16:49.500Z,100304.34
2022-10-15T01:19:53.509Z,100268.69
2022-10-15T01:23:00.533Z,100307.41
2022-10-15T01:25:53.766Z,100308.50
2022-10-15T01:28:51.496Z,100318.34
2022-10-15T01:31:35.930Z,100308.81
2022-10-15T01:34:07.853Z,100313.53
2022-10-15T01:36:39.641Z,100320.69
2022-10-15T01:39:27.790Z,100317.56
2022-10-15T01:42:04.185Z,100316.88
2022-10-15T01:44:36.191Z,100312.47
2022-10-15T01:47:09.777Z,100298.38
2022-10-15T01:49:42.391Z,100300.84
2022-10-15T01:52:14.495Z,100291.03
2022-10-15T01:54:41.425Z,100290.06
2022-10-15T01:57:10.846Z,100295.59
2022-10-15T01:59:37.335Z,100270.72
2022-10-15T02:02:03.811Z,100279.63
2022-10-15T02:04:31.839Z,100291.75
2022-10-15T02:07:27.132Z,100281.56
2022-10-15T02:10:31.694Z,100284.84
2022-10-15T02:13:13.361Z,100286.81
2022-10-15T02:16:00.388Z,100278.41
2022-10-15T02:18:38.621Z,100282.69
2022-10-15T02:21:14.523Z,100274.00
2022-10-15T02:23:58.340Z,100280.91
2022-10-15T02:26:27.897Z,100286.81
2022-10-15T02:28:56.925Z,100281.56
2022-10-15T02:31:24.253Z,100296.72
2022-10-15T02:33:55.355Z,100294.63
2022-10-15T02:36:22.162Z,100285.94
2022-10-15T02:38:50.892Z,100285.66
2022-10-15T02:41:18.558Z,100287.97
2022-10-15T02:43:44.967Z,100287.84
2022-10-15T02:46:14.342Z,100286.84
2022-10-15T02:48:40.817Z,100299.13
2022-10-15T02:51:07.699Z,100297.47
2022-10-15T02:53:34.220Z,100305.50
2022-10-15T02:56:00.717Z,100300.09
2022-10-15T02:58:29.129Z,100297.19
2022-10-15T03:00:55.666Z,100282.81
2022-10-15T03:03:22.955Z,100282.81
2022-10-15T03:05:49.657Z,100286.25
2022-10-15T03:08:16.128Z,100270.22
2022-10-15T03:10:42.559Z,100282.06
2022-10-15T03:13:09.128Z,100274.34
2022-10-15T03:15:36.792Z,100261.75
2022-10-15T03:18:04.014Z,100258.63
2022-10-15T03:20:30.530Z,100267.44
2022-10-15T03:22:57.047Z,100258.63
2022-10-15T03:25:23.503Z,100261.53
2022-10-15T03:27:52.847Z,100264.38
2022-10-15T03:30:19.868Z,100255.38
2022-10-15T03:32:47.758Z,100255.38
2022-10-15T03:35:14.628Z,100260.09
2022-10-15T03:37:41.048Z,100261.25
2022-10-15T03:40:11.964Z,100256.28
2022-10-15T03:42:41.178Z,100257.13
2022-10-15T03:45:08.404Z,100254.63
2022-10-15T03:47:34.880Z,100252.97
2022-10-15T03:50:01.398Z,100255.91
2022-10-15T03:52:28.124Z,100261.44
2022-10-15T03:54:54.532Z,100258.28
2022-10-15T03:57:21.012Z,100257.47
2022-10-15T03:59:47.451Z,100268.25
2022-10-15T04:02:13.894Z,100274.31
2022-10-15T04:04:40.330Z,100269.38
2022-10-15T04:07:06.761Z,100277.38
2022-10-15T04:09:33.242Z,100277.38
2022-10-15T04:11:59.645Z,100273.78
2022-10-15T04:14:26.191Z,100267.44
2022-10-15T04:16:52.609Z,100270.41
2022-10-15T04:19:19.076Z,100268.50
2022-10-15T04:21:45.549Z,100270.13
2022-10-15T04:24:12.000Z,100266.53
2022-10-15T04:26:38.497Z,100278.53
2022-10-15T04:29:05.147Z,100276.72
2022-10-15T04:31:31.922Z,100271.22
2022-10-15T04:33:58.385Z,100266.75
2022-10-15T04:36:25.202Z,100225.69
2022-10-15T04:38:52.657Z,100268.28
2022-10-15T04:41:19.090Z,100268.13
2022-10-15T04:43:45.539Z,100262.03
2022-10-15T04:46:12.097Z,100249.38
2022-10-15T04:48:42.152Z,100239.56
2022-10-15T04:51:15.669Z,100235.28
2022-10-15T04:53:42.461Z,100235.44
2022-10-15T04:56:13.698Z,100243.16
2022-10-15T04:58:40.124Z,100239.88
2022-10-15T05:01:08.622Z,100241.66
2022-10-15T05:03:38.444Z,100250.81
2022-10-15T05:06:10.151Z,100257.03
2022-10-15T05:08:36.996Z,100250.13
2022-10-15T05:11:09.206Z,100258.28
2022-10-15T05:13:36.250Z,100268.09
2022-10-15T05:16:29.503Z,100244.84
2022-10-15T05:19:01.761Z,100254.09
2022-10-15T05:21:29.091Z,100269.66
2022-10-15T05:23:55.646Z,100255.34
2022-10-15T05:26:25.223Z,100265.53
2022-10-15T05:28:52.303Z,100268.44
2022-10-15T05:31:21.963Z,100263.22
2022-10-15T05:33:49.974Z,100255.66
2022-10-15T05:36:18.154Z,100263.88
2022-10-15T05:38:48.973Z,100256.84
2022-10-15T05:41:15.914Z,100256.53
2022-10-15T05:43:42.502Z,100252.41
2022-10-15T05:46:09.312Z,100248.97
2022-10-15T05:48:35.744Z,100255.34
2022-10-15T05:51:04.186Z,100251.22
2022-10-15T05:53:31.029Z,100252.19
2022-10-15T05:56:00.995Z,100244.13
2022-10-15T05:58:32.110Z,100247.81
2022-10-15T06:01:03.317Z,100257.78
2022-10-15T06:03:30.203Z,100262.09
2022-10-15T06:05:56.589Z,100259.09
2022-10-15T06:08:23.561Z,100267.38
2022-10-15T06:10:49.987Z,100269.34
2022-10-15T06:13:16.583Z,100275.91
2022-10-15T06:15:44.947Z,100278.53
2022-10-15T06:18:15.839Z,100280.34
2022-10-15T06:20:43.618Z,100233.00
2022-10-15T06:23:11.914Z,100277.97
2022-10-15T06:25:38.456Z,100282.25
2022-10-15T06:28:06.624Z,100280.28
2022-10-15T06:30:33.458Z,100288.88
2022-10-15T06:32:59.980Z,100289.53
2022-10-15T06:35:30.274Z,100277.09
2022-10-15T06:38:02.900Z,100282.47
2022-10-15T06:40:30.350Z,100282.03
2022-10-15T06:43:04.255Z,100266.19
2022-10-15T06:45:30.768Z,100270.63
2022-10-15T06:47:57.223Z,100275.25
2022-10-15T06:50:23.739Z,100283.66
2022-10-15T06:52:50.213Z,100283.50
2022-10-15T06:55:16.703Z,100281.13
2022-10-15T06:57:43.123Z,100283.69
2022-10-15T07:00:10.061Z,100280.47
2022-10-15T07:02:36.535Z,100286.63
2022-10-15T07:05:02.968Z,100287.16
2022-10-15T07:07:29.409Z,100289.34
2022-10-15T07:09:56.036Z,100295.47
2022-10-15T07:12:22.869Z,100299.03
2022-10-15T07:14:49.971Z,100287.50
2022-10-15T07:17:16.915Z,100281.50
2022-10-15T07:19:44.020Z,100285.31
2022-10-15T07:22:10.916Z,100260.56
2022-10-15T07:24:37.345Z,100281.16
2022-10-15T07:27:08.154Z,100260.63
2022-10-15T07:29:44.774Z,100286.22
2022-10-15T07:32:11.241Z,100279.06
2022-10-15T07:34:37.656Z,100269.59
2022-10-15T07:37:04.072Z,100266.94
2022-10-15T07:39:30.510Z,100276.06
2022-10-15T07:41:56.975Z,100269.66
2022-10-15T07:44:23.401Z,100267.41
2022-10-15T07:46:49.826Z,100246.34
2022-10-15T07:49:16.374Z,100267.94
2022-10-15T07:51:43.191Z,100252.97
2022-10-15T07:54:09.625Z,100253.63
2022-10-15T07:56:36.051Z,100248.72
2022-10-15T07:59:02.630Z,100218.75
2022-10-15T08:01:29.120Z,100248.25
2022-10-15T08:03:55.635Z,100245.13
2022-10-15T08:06:22.219Z,100249.41
2022-10-15T08:08:48.823Z,100252.53
2022-10-15T08:11:16.645Z,100245.97
2022-10-15T08:13:44.682Z,100264.91
2022-10-15T08:16:14.625Z,100255.75
2022-10-15T08:18:43.077Z,100256.81
2022-10-15T08:21:11.262Z,100251.97
2022-10-15T08:23:37.776Z,100251.50
2022-10-15T08:26:04.833Z,100252.81
2022-10-15T08:28:33.548Z,100252.47
2022-10-15T08:31:05.199Z,100248.38
2022-10-15T08:33:34.338Z,100252.50
2022-10-15T08:36:00.838Z,100243.47
2022-10-15T08:38:27.328Z,100243.63
2022-10-15T08:40:56.029Z,100235.06
2022-10-15T08:43:25.069Z,100234.94
2022-10-15T08:45:56.019Z,100225.06
2022-10-15T08:48:41.106Z,100229.53
2022-10-15T08:51:17.057Z,100231.78
2022-10-15T08:53:49.617Z,100202.50
2022-10-15T08:56:20.731Z,100196.38
2022-10-15T08:59:38.549Z,100227.53
2022-10-15T09:02:22.614Z,100231.78
2022-10-15T09:05:26.892Z,100241.00
2022-10-15T09:08:20.684Z,100233.59
2022-10-15T09:10:53.529Z,100231.78
2022-10-15T09:13:30.368Z,100231.31
2022-10-15T09:16:05.294Z,100226.56
2022-10-15T09:18:35.226Z,100216.84
2022-10-15T09:21:05.260Z,100203.50
2022-10-15T09:23:35.708Z,100217.81
2022-10-15T09:26:34.575Z,100212.06
2022-10-15T09:29:24.845Z,100216.31
2022-10-15T09:32:00.224Z,100201.84
2022-10-15T09:34:42.066Z,100203.00
2022-10-15T09:37:19.685Z,100203.13
2022-10-15T09:40:01.235Z,100208.00
2022-10-15T09:42:49.002Z,100198.91
2022-10-15T09:45:16.070Z,100196.72
2022-10-15T09:47:43.865Z,100205.25
2022-10-15T09:50:13.272Z,100165.41
2022-10-15T09:53:24.526Z,100201.53
2022-10-15T09:56:01.034Z,100194.25
2022-10-15T09:58:38.625Z,100196.53
2022-10-15T10:01:17.839Z,100195.38
2022-10-15T10:03:44.290Z,100194.84
2022-10-15T10:06:13.658Z,100200.91
2022-10-15T10:08:59.961Z,100188.44
2022-10-15T10:11:44.131Z,100192.31
2022-10-15T10:14:23.560Z,100146.44
2022-10-15T10:17:26.213Z,100180.75
2022-10-15T10:20:18.119Z,100181.50
2022-10-15T10:22:51.538Z,100177.38
2022-10-15T10:25:27.510Z,100180.03
2022-10-15T10:27:56.110Z,100188.31
2022-10-15T10:30:23.274Z,100186.28
2022-10-15T10:33:00.230Z,100185.81
2022-10-15T10:35:52.523Z,100185.31
2022-10-15T10:38:38.852Z,100180.44
2022-10-15T10:41:10.149Z,100174.91
2022-10-15T10:43:39.646Z,100182.44
2022-10-15T10:46:18.180Z,100180.34
2022-10-15T10:48:50.096Z,100163.69
2022-10-15T10:51:19.734Z,100168.75
2022-10-15T10:53:57.071Z,100169.31
2022-10-15T10:56:30.218Z,100174.25
2022-10-15T10:59:01.860Z,100165.53
2022-10-15T11:01:29.301Z,100190.03
2022-10-15T11:03:56.281Z,100175.47
2022-10-15T11:06:42.278Z,100176.75
2022-10-15T11:09:08.743Z,100168.38
2022-10-15T11:11:47.521Z,100169.66
2022-10-15T11:14:25.946Z,100165.50
2022-10-15T11:16:58.397Z,100156.66
2022-10-15T11:20:20.975Z,100159.75
2022-10-15T11:22:31.427Z,100149.13
2022-10-15T11:25:21.827Z,100134.44
2022-10-15T11:28:00.239Z,100155.50
2022-10-15T11:30:34.805Z,100151.69
2022-10-15T11:33:19.423Z,100150.34
2022-10-15T11:36:09.485Z,100139.66
2022-10-15T11:38:49.757Z,100150.88
2022-10-15T11:41:34.417Z,100140.75
2022-10-15T11:44:11.525Z,100141.88
2022-10-15T11:46:44.116Z,100152.34
2022-10-15T11:49:22.241Z,100148.50
2022-10-15T11:52:12.806Z,100148.06
2022-10-15T11:54:43.483Z,100104.13
2022-10-15T11:57:14.963Z,100145.31
2022-10-15T11:59:56.936Z,100140.91
2022-10-15T12:02:29.224Z,100130.94
2022-10-15T12:05:08.379Z,100126.34
2022-10-15T12:07:41.776Z,100135.00
2022-10-15T12:10:31.192Z,100111.47
2022-10-15T12:13:36.411Z,100138.50
2022-10-15T12:16:25.049Z,100123.09
2022-10-15T12:18:57.335Z,100133.50
2022-10-15T12:21:51.704Z,100120.53
2022-10-15T12:24:39.809Z,100120.38
2022-10-15T12:27:34.743Z,100107.44
2022-10-15T12:30:03.970Z,100105.22
2022-10-15T12:32:37.826Z,100109.06
2022-10-15T12:35:18.658Z,100102.19
2022-10-15T12:37:48.079Z,100120.03
2022-10-15T12:40:26.772Z,100102.75
2022-10-15T12:42:55.826Z,100114.41
2022-10-15T12:45:40.298Z,100093.81
2022-10-15T12:48:16.067Z,100111.28
2022-10-15T12:50:43.316Z,100119.41
2022-10-15T12:53:29.841Z,100108.81
2022-10-15T12:56:24.294Z,100121.03
2022-10-15T12:58:51.748Z,100134.25
2022-10-15T13:01:18.212Z,100133.50
2022-10-15T13:03:50.859Z,100124.03
2022-10-15T13:06:20.065Z,100111.81
2022-10-15T13:08:51.863Z,100111.47
2022-10-15T13:11:30.410Z,100095.53
2022-10-15T13:14:07.685Z,100089.25
2022-10-15T13:16:35.640Z,100085.44
2022-10-15T13:19:03.315Z,100089.91
2022-10-15T13:21:57.682Z,100093.31
2022-10-15T13:24:27.052Z,100090.06
2022-10-15T13:26:55.827Z,100087.97
2022-10-15T13:29:25.099Z,100093.72
2022-10-15T13:31:54.564Z,100074.09
2022-10-15T13:34:30.233Z,100086.16
2022-10-15T13:36:59.554Z,100082.28
2022-10-15T13:39:43.863Z,100079.47
2022-10-15T13:42:13.329Z,100099.09
2022-10-15T13:44:40.596Z,100084.25
2022-10-15T13:47:27.881Z,100086.13
2022-10-15T13:50:24.331Z,100091.47
2022-10-15T13:53:12.200Z,100093.13
2022-10-15T13:55:44.001Z,100103.75
2022-10-15T13:58:27.745Z,100103.16
2022-10-15T14:01:09.278Z,100102.91
2022-10-15T14:03:38.570Z,100084.16
2022-10-15T14:06:28.496Z,100089.41
2022-10-15T14:09:14.195Z,100101.25
2022-10-15T14:11:40.728Z,100090.41
2022-10-15T14:14:36.271Z,100092.03
2022-10-15T14:17:09.015Z,100096.47
2022-10-15T14:19:38.485Z,100081.22
2022-10-15T14:22:05.687Z,100087.88
2022-10-15T14:24:40.137Z,100088.88
2022-10-15T14:27:22.356Z,100067.38
2022-10-15T14:29:51.561Z,100086.75
2022-10-15T14:32:20.687Z,100121.44
2022-10-15T14:34:48.120Z,100123.03
2022-10-15T14:37:47.218Z,100120.53
2022-10-15T14:40:18.281Z,100114.59
2022-10-15T14:43:03.140Z,100127.16
2022-10-15T14:45:42.021Z,100131.63
2022-10-15T14:48:18.741Z,100125.69
2022-10-15T14:50:45.435Z,100154.75
2022-10-15T14:53:18.776Z,100157.56
2022-10-15T14:56:06.706Z,100166.53
2022-10-15T14:58:33.222Z,100154.72
2022-10-15T15:01:05.267Z,100170.28
2022-10-15T15:03:42.880Z,100175.56
2022-10-15T15:06:09.656Z,100178.16
2022-10-15T15:08:36.092Z,100183.81
2022-10-15T15:11:05.450Z,100191.25
2022-10-15T15:13:38.527Z,100192.78
2022-10-15T15:16:05.409Z,100199.72
2022-10-15T15:18:32.063Z,100196.34
2022-10-15T15:21:02.435Z,100204.81
2022-10-15T15:23:29.786Z,100205.06
2022-10-15T15:25:56.265Z,100206.38
2022-10-15T15:28:25.672Z,100206.16
2022-10-15T15:30:59.974Z,100202.50
2022-10-15T15:33:28.300Z,100200.84
2022-10-15T15:36:03.613Z,100210.41
2022-10-15T15:38:33.047Z,100201.91
2022-10-15T15:41:20.287Z,100208.44
2022-10-15T15:43:47.384Z,100217.41
2022-10-15T15:46:14.533Z,100221.94
2022-10-15T15:48:41.188Z,100234.00
2022-10-15T15:51:19.638Z,100242.78
2022-10-15T15:53:46.425Z,100241.00
2022-10-15T15:56:13.336Z,100250.25
2022-10-15T15:58:39.747Z,100255.22
2022-10-15T16:01:06.299Z,100256.25
2022-10-15T16:03:32.774Z,100251.81
2022-10-15T16:05:59.375Z,100259.69
2022-10-15T16:08:25.851Z,100241.63
2022-10-15T16:10:52.358Z,100256.13
2022-10-15T16:13:18.842Z,100256.13
2022-10-15T16:15:45.467Z,100259.75
2022-10-15T16:18:12.252Z,100270.31
2022-10-15T16:20:44.957Z,100258.75
2022-10-15T16:23:14.638Z,100266.34
2022-10-15T16:25:41.562Z,100273.63
2022-10-15T16:28:08.349Z,100274.13
2022-10-15T16:30:34.990Z,100274.28
2022-10-15T16:33:01.549Z,100289.47
2022-10-15T16:35:28.059Z,100287.16
2022-10-15T16:37:56.121Z,100282.41
2022-10-15T16:40:22.979Z,100274.53
2022-10-15T16:42:49.493Z,100297.91
2022-10-15T16:45:16.053Z,100302.38
2022-10-15T16:47:42.572Z,100301.38
2022-10-15T16:50:09.606Z,100310.13
2022-10-15T16:52:36.214Z,100314.91
2022-10-15T16:55:05.277Z,100327.94
2022-10-15T16:57:31.761Z,100337.00
2022-10-15T16:59:58.308Z,100333.50
2022-10-15T17:02:25.040Z,100329.88
2022-10-15T17:04:51.755Z,100339.63
2022-10-15T17:07:18.275Z,100339.78
2022-10-15T17:09:46.336Z,100351.16
2022-10-15T17:12:12.800Z,100354.13
2022-10-15T17:14:39.291Z,100357.75
2022-10-15T17:17:07.662Z,100366.50
2022-10-15T17:19:35.079Z,100376.19
2022-10-15T17:22:01.680Z,100379.00
2022-10-15T17:24:28.164Z,100384.13
2022-10-15T17:26:54.791Z,100399.94
2022-10-15T17:29:22.998Z,100399.44
2022-10-15T17:31:50.515Z,100403.06
2022-10-15T17:34:18.099Z,100404.22
2022-10-15T17:36:47.323Z,100413.13
2022-10-15T17:39:18.839Z,100416.91
2022-10-15T17:41:46.116Z,100411.97
2022-10-15T17:44:12.971Z,100412.47
2022-10-15T17:46:39.980Z,100418.88
2022-10-15T17:49:07.901Z,100420.84
2022-10-15T17:51:34.858Z,100416.03
2022-10-15T17:54:02.142Z,100429.09
2022-10-15T17:56:31.353Z,100434.47
2022-10-15T17:58:59.306Z,100440.88
2022-10-15T18:01:56.187Z,100454.41
2022-10-15T18:04:17.168Z,100455.88
2022-10-15T18:06:44.914Z,100454.03
2022-10-15T18:09:11.514Z,100462.28
2022-10-15T18:11:38.028Z,100459.78
2022-10-15T18:14:04.528Z,100446.31
2022-10-15T18:16:32.353Z,100457.31
2022-10-15T18:18:58.968Z,100461.56
2022-10-15T18:21:27.422Z,100468.13
2022-10-15T18:23:56.475Z,100417.63
2022-10-15T18:26:23.839Z,100456.56
2022-10-15T18:28:52.727Z,100459.16
2022-10-15T18:31:19.944Z,100459.13
2022-10-15T18:33:51.774Z,100459.88
2022-10-15T18:36:24.763Z,100461.19
2022-10-15T18:38:51.730Z,100458.88
2022-10-15T18:41:19.798Z,100474.44
2022-10-15T18:43:52.276Z,100416.47
2022-10-15T18:46:19.138Z,100458.56
2022-10-15T18:48:45.717Z,100460.66
2022-10-15T18:51:12.541Z,100475.69
2022-10-15T18:53:40.093Z,100458.84
2022-10-15T18:56:08.007Z,100464.34
2022-10-15T18:58:34.741Z,100454.81
2022-10-15T19:01:13.268Z,100451.19
2022-10-15T19:03:40.243Z,100466.75
2022-10-15T19:06:06.688Z,100481.84
2022-10-15T19:08:34.044Z,100477.72
2022-10-15T19:11:06.041Z,100495.31
2022-10-15T19:13:32.522Z,100489.22
2022-10-15T19:16:01.824Z,100502.53
2022-10-15T19:18:28.899Z,100501.03
2022-10-15T19:20:55.356Z,100493.44
2022-10-15T19:23:22.314Z,100506.72
2022-10-15T19:25:48.759Z,100512.97
2022-10-15T19:28:15.438Z,100503.28
2022-10-15T19:30:42.013Z,100501.13
2022-10-15T19:33:08.608Z,100490.91
2022-10-15T19:35:41.892Z,100466.44
2022-10-15T19:38:08.351Z,100495.47
2022-10-15T19:40:38.842Z,100506.16
2022-10-15T19:43:06.303Z,100500.22
2022-10-15T19:45:43.549Z,100499.41
2022-10-15T19:48:15.988Z,100499.41
2022-10-15T19:50:44.688Z,100504.94
2022-10-15T19:53:13.609Z,100475.53
2022-10-15T19:55:40.411Z,100507.22
2022-10-15T19:58:07.542Z,100513.47
2022-10-15T20:00:34.495Z,100519.69
2022-10-15T20:03:01.292Z,100527.84
2022-10-15T20:05:27.827Z,100517.97
2022-10-15T20:07:54.300Z,100532.44
2022-10-15T20:10:25.565Z,100526.97
2022-10-15T20:12:52.591Z,100542.88
2022-10-15T20:15:19.067Z,100540.84
2022-10-15T20:17:46.810Z,100536.19
2022-10-15T20:20:13.358Z,100538.13
2022-10-15T20:22:39.894Z,100535.94
2022-10-15T20:25:06.604Z,100535.44
2022-10-15T20:27:33.070Z,100531.75
2022-10-15T20:29:59.545Z,100547.31
2022-10-15T20:32:41.458Z,100547.63
2022-10-15T20:35:08.767Z,100553.31
2022-10-15T20:37:35.224Z,100556.69
2022-10-15T20:40:01.699Z,100567.34
2022-10-15T20:42:28.450Z,100574.66
2022-10-15T20:44:55.138Z,100567.66
2022-10-15T20:47:24.045Z,100580.50
2022-10-15T20:49:53.486Z,100585.50
2022-10-15T20:52:23.425Z,100588.66
2022-10-15T20:54:51.281Z,100577.50
2022-10-15T20:57:17.903Z,100576.41
2022-10-15T20:59:44.365Z,100593.69
2022-10-15T21:02:10.836Z,100591.19
2022-10-15T21:04:37.325Z,100598.94
2022-10-15T21:07:03.767Z,100591.19
2022-10-15T21:09:30.200Z,100594.78
2022-10-15T21:11:56.744Z,100588.56
2022-10-15T21:14:23.724Z,100599.91
2022-10-15T21:16:50.164Z,100608.75
2022-10-15T21:19:16.707Z,100598.09
2022-10-15T21:21:43.239Z,100595.63
2022-10-15T21:24:09.678Z,100610.41
2022-10-15T21:26:36.434Z,100579.44
2022-10-15T21:29:03.441Z,100572.44
2022-10-15T21:31:30.122Z,100615.78
2022-10-15T21:33:57.137Z,100619.38
2022-10-15T21:36:26.529Z,100621.16
2022-10-15T21:38:58.930Z,100619.78
2022-10-15T21:41:28.219Z,100595.25
2022-10-15T21:43:54.891Z,100594.53
2022-10-15T21:46:21.374Z,100627.91
2022-10-15T21:48:47.910Z,100622.16
2022-10-15T21:51:23.904Z,100620.47
2022-10-15T21:53:50.920Z,100629.06
2022-10-15T21:56:17.807Z,100634.19
2022-10-15T21:58:44.664Z,100612.81
2022-10-15T22:01:17.163Z,100633.63
2022-10-15T22:03:46.040Z,100644.13
2022-10-15T22:06:13.707Z,100627.84
2022-10-15T22:08:40.514Z,100634.19
2022-10-15T22:11:21.935Z,100628.25
2022-10-15T22:13:51.906Z,100628.38
2022-10-15T22:16:19.419Z,100625.75
2022-10-15T22:18:46.220Z,100622.31
2022-10-15T22:21:15.929Z,100625.38
2022-10-15T22:23:48.346Z,100621.63
2022-10-15T22:26:16.490Z,100620.81
2022-10-15T22:28:44.891Z,100630.47
2022-10-15T22:31:14.756Z,100626.34
2022-10-15T22:33:41.748Z,100641.25
2022-10-15T22:36:13.803Z,100634.47
2022-10-15T22:38:41.438Z,100643.31
2022-10-15T22:41:09.854Z,100646.78
2022-10-15T22:43:36.824Z,100632.00
2022-10-15T22:46:04.342Z,100660.84
2022-10-15T22:48:35.706Z,100644.41
2022-10-15T22:51:03.287Z,100649.66
2022-10-15T22:53:30.329Z,100644.28
2022-10-15T22:56:05.051Z,100645.94
2022-10-15T22:58:32.674Z,100644.53
2022-10-15T23:01:11.235Z,100645.66
2022-10-15T23:03:38.905Z,100641.38
2022-10-15T23:06:05.821Z,100654.19
2022-10-15T23:08:34.201Z,100647.56
2022-10-15T23:11:11.800Z,100639.13
2022-10-15T23:13:39.894Z,100633.75
2022-10-15T23:16:16.047Z,100646.03
2022-10-15T23:18:43.767Z,100651.69
2022-10-15T23:21:18.688Z,100656.63
2022-10-15T23:23:45.695Z,100655.81
2022-10-15T23:26:14.199Z,100604.03
2022-10-15T23:28:41.104Z,100641.00
2022-10-15T23:31:07.739Z,100638.38
2022-10-15T23:33:34.628Z,100617.13
2022-10-15T23:36:04.081Z,100641.69
2022-10-15T23:38:31.170Z,100645.16
2022-10-15T23:41:05.192Z,100647.78
2022-10-15T23:43:31.874Z,100648.59
2022-10-15T23:45:59.221Z,100647.09
2022-10-15T23:48:25.820Z,100649.84
2022-10-15T23:50:52.795Z,100668.22
2022-10-15T23:53:19.793Z,100658.69
2022-10-15T23:55:47.266Z,100663.16
2022-10-15T23:58:14.364Z,100655.53
